sensor_id;sensor_type;location;lat;lon;timestamp;P1;durP1;ratioP1;P2;durP2;ratioP2
18574;SDS011;9417;16.484;102.872;2023-04-01T00:00:38;18.73;;;14.90;;
18574;SDS011;9417;16.484;102.872;2023-04-01T00:02:46;20.48;;;15.77;;
18574;SDS011;9417;16.484;102.872;2023-04-01T00:04:53;22.05;;;15.82;;
18574;SDS011;9417;16.484;102.872;2023-04-01T00:07:00;22.80;;;15.07;;
18574;SDS011;9417;16.484;102.872;2023-04-01T00:09:07;20.48;;;16.38;;
18574;SDS011;9417;16.484;102.872;2023-04-01T00:11:15;24.80;;;15.25;;
18574;SDS011;9417;16.484;102.872;2023-04-01T00:13:24;24.15;;;16.60;;
18574;SDS011;9417;16.484;102.872;2023-04-01T00:15:32;21.80;;;15.30;;
18574;SDS011;9417;16.484;102.872;2023-04-01T00:17:39;21.48;;;15.80;;
18574;SDS011;9417;16.484;102.872;2023-04-01T00:19:46;22.17;;;15.80;;
18574;SDS011;9417;16.484;102.872;2023-04-01T00:21:54;21.02;;;16.10;;
18574;SDS011;9417;16.484;102.872;2023-04-01T00:24:00;20.70;;;16.42;;
18574;SDS011;9417;16.484;102.872;2023-04-01T00:26:08;19.13;;;15.73;;
18574;SDS011;9417;16.484;102.872;2023-04-01T00:28:15;23.73;;;16.40;;
18574;SDS011;9417;16.484;102.872;2023-04-01T00:30:25;21.08;;;16.38;;
18574;SDS011;9417;16.484;102.872;2023-04-01T00:32:32;23.80;;;17.40;;
18574;SDS011;9417;16.484;102.872;2023-04-01T00:34:39;24.42;;;18.60;;
18574;SDS011;9417;16.484;102.872;2023-04-01T00:36:47;27.48;;;18.33;;
18574;SDS011;9417;16.484;102.872;2023-04-01T00:38:56;27.98;;;17.65;;
18574;SDS011;9417;16.484;102.872;2023-04-01T00:41:04;25.23;;;18.77;;
18574;SDS011;9417;16.484;102.872;2023-04-01T00:43:12;23.90;;;18.75;;
18574;SDS011;9417;16.484;102.872;2023-04-01T00:45:26;25.60;;;18.38;;
18574;SDS011;9417;16.484;102.872;2023-04-01T00:47:38;25.45;;;17.88;;
18574;SDS011;9417;16.484;102.872;2023-04-01T00:49:45;24.55;;;19.15;;
18574;SDS011;9417;16.484;102.872;2023-04-01T00:51:55;23.33;;;18.75;;
18574;SDS011;9417;16.484;102.872;2023-04-01T00:54:05;25.25;;;19.33;;
18574;SDS011;9417;16.484;102.872;2023-04-01T00:56:12;25.10;;;19.05;;
18574;SDS011;9417;16.484;102.872;2023-04-01T00:58:21;26.98;;;19.70;;
18574;SDS011;9417;16.484;102.872;2023-04-01T01:00:31;28.13;;;19.98;;
18574;SDS011;9417;16.484;102.872;2023-04-01T01:02:40;31.67;;;19.85;;
18574;SDS011;9417;16.484;102.872;2023-04-01T01:04:49;29.75;;;20.27;;
18574;SDS011;9417;16.484;102.872;2023-04-01T01:07:02;30.25;;;20.40;;
18574;SDS011;9417;16.484;102.872;2023-04-01T01:09:23;25.55;;;19.83;;
18574;SDS011;9417;16.484;102.872;2023-04-01T01:11:37;29.05;;;20.40;;
18574;SDS011;9417;16.484;102.872;2023-04-01T01:13:48;23.77;;;18.75;;
18574;SDS011;9417;16.484;102.872;2023-04-01T01:16:05;28.95;;;21.33;;
18574;SDS011;9417;16.484;102.872;2023-04-01T01:18:18;26.25;;;19.17;;
18574;SDS011;9417;16.484;102.872;2023-04-01T01:20:33;29.35;;;20.52;;
18574;SDS011;9417;16.484;102.872;2023-04-01T01:25:50;29.08;;;19.60;;
18574;SDS011;9417;16.484;102.872;2023-04-01T01:28:09;33.00;;;20.27;;
18574;SDS011;9417;16.484;102.872;2023-04-01T01:30:34;27.10;;;20.88;;
18574;SDS011;9417;16.484;102.872;2023-04-01T01:32:55;28.63;;;19.50;;
18574;SDS011;9417;16.484;102.872;2023-04-01T01:35:21;26.10;;;20.63;;
18574;SDS011;9417;16.484;102.872;2023-04-01T01:37:32;30.90;;;20.88;;
18574;SDS011;9417;16.484;102.872;2023-04-01T01:39:40;31.63;;;22.92;;
18574;SDS011;9417;16.484;102.872;2023-04-01T01:41:50;29.45;;;22.52;;
18574;SDS011;9417;16.484;102.872;2023-04-01T01:43:58;29.42;;;21.67;;
18574;SDS011;9417;16.484;102.872;2023-04-01T01:46:09;29.63;;;21.10;;
18574;SDS011;9417;16.484;102.872;2023-04-01T01:50:29;28.55;;;21.13;;
18574;SDS011;9417;16.484;102.872;2023-04-01T01:52:36;27.33;;;21.05;;
18574;SDS011;9417;16.484;102.872;2023-04-01T01:54:48;30.20;;;21.63;;
18574;SDS011;9417;16.484;102.872;2023-04-01T01:57:01;30.38;;;21.98;;
18574;SDS011;9417;16.484;102.872;2023-04-01T01:59:16;28.48;;;21.85;;
18574;SDS011;9417;16.484;102.872;2023-04-01T02:01:26;30.33;;;23.00;;
18574;SDS011;9417;16.484;102.872;2023-04-01T02:03:43;28.92;;;21.13;;
18574;SDS011;9417;16.484;102.872;2023-04-01T02:05:56;31.38;;;22.20;;
18574;SDS011;9417;16.484;102.872;2023-04-01T02:08:06;30.33;;;22.15;;
18574;SDS011;9417;16.484;102.872;2023-04-01T02:10:16;27.50;;;21.77;;
18574;SDS011;9417;16.484;102.872;2023-04-01T02:12:24;26.42;;;21.45;;
18574;SDS011;9417;16.484;102.872;2023-04-01T02:14:35;30.15;;;22.33;;
18574;SDS011;9417;16.484;102.872;2023-04-01T02:16:46;28.98;;;22.15;;
18574;SDS011;9417;16.484;102.872;2023-04-01T02:18:56;30.85;;;23.27;;
18574;SDS011;9417;16.484;102.872;2023-04-01T02:21:07;29.95;;;22.92;;
18574;SDS011;9417;16.484;102.872;2023-04-01T02:23:14;30.52;;;22.15;;
18574;SDS011;9417;16.484;102.872;2023-04-01T02:25:25;29.40;;;23.05;;
18574;SDS011;9417;16.484;102.872;2023-04-01T02:27:35;29.98;;;23.00;;
18574;SDS011;9417;16.484;102.872;2023-04-01T02:29:43;31.10;;;23.50;;
18574;SDS011;9417;16.484;102.872;2023-04-01T02:31:50;31.52;;;24.25;;
18574;SDS011;9417;16.484;102.872;2023-04-01T02:33:59;30.30;;;22.90;;
18574;SDS011;9417;16.484;102.872;2023-04-01T02:36:12;31.83;;;23.58;;
18574;SDS011;9417;16.484;102.872;2023-04-01T02:38:20;30.60;;;24.30;;
18574;SDS011;9417;16.484;102.872;2023-04-01T02:40:27;31.00;;;23.27;;
18574;SDS011;9417;16.484;102.872;2023-04-01T02:42:34;34.58;;;24.50;;
18574;SDS011;9417;16.484;102.872;2023-04-01T02:44:41;29.45;;;23.90;;
18574;SDS011;9417;16.484;102.872;2023-04-01T02:46:49;32.30;;;23.58;;
18574;SDS011;9417;16.484;102.872;2023-04-01T02:48:56;30.45;;;24.00;;
18574;SDS011;9417;16.484;102.872;2023-04-01T02:51:04;31.88;;;23.70;;
18574;SDS011;9417;16.484;102.872;2023-04-01T02:53:12;29.23;;;23.48;;
18574;SDS011;9417;16.484;102.872;2023-04-01T02:55:20;28.77;;;23.45;;
18574;SDS011;9417;16.484;102.872;2023-04-01T02:57:27;30.73;;;23.48;;
18574;SDS011;9417;16.484;102.872;2023-04-01T02:59:34;34.50;;;24.95;;
18574;SDS011;9417;16.484;102.872;2023-04-01T03:01:41;30.17;;;23.50;;
18574;SDS011;9417;16.484;102.872;2023-04-01T03:03:49;30.02;;;23.17;;
18574;SDS011;9417;16.484;102.872;2023-04-01T03:05:56;35.10;;;23.80;;
18574;SDS011;9417;16.484;102.872;2023-04-01T03:08:04;29.17;;;23.77;;
18574;SDS011;9417;16.484;102.872;2023-04-01T03:10:13;29.00;;;23.48;;
18574;SDS011;9417;16.484;102.872;2023-04-01T03:12:20;28.83;;;22.98;;
18574;SDS011;9417;16.484;102.872;2023-04-01T03:14:27;29.63;;;23.48;;
18574;SDS011;9417;16.484;102.872;2023-04-01T03:16:35;31.85;;;25.10;;
18574;SDS011;9417;16.484;102.872;2023-04-01T03:18:42;32.38;;;23.90;;
18574;SDS011;9417;16.484;102.872;2023-04-01T03:20:49;29.70;;;23.60;;
18574;SDS011;9417;16.484;102.872;2023-04-01T03:22:56;32.33;;;24.13;;
18574;SDS011;9417;16.484;102.872;2023-04-01T03:25:04;33.05;;;23.83;;
18574;SDS011;9417;16.484;102.872;2023-04-01T03:27:14;33.50;;;24.50;;
18574;SDS011;9417;16.484;102.872;2023-04-01T03:29:22;30.00;;;23.85;;
18574;SDS011;9417;16.484;102.872;2023-04-01T03:31:30;32.28;;;25.02;;
18574;SDS011;9417;16.484;102.872;2023-04-01T03:33:37;29.73;;;22.95;;
18574;SDS011;9417;16.484;102.872;2023-04-01T03:35:44;31.90;;;23.70;;
18574;SDS011;9417;16.484;102.872;2023-04-01T03:37:52;29.45;;;23.13;;
18574;SDS011;9417;16.484;102.872;2023-04-01T03:39:59;29.85;;;24.40;;
18574;SDS011;9417;16.484;102.872;2023-04-01T03:42:07;29.15;;;22.45;;
18574;SDS011;9417;16.484;102.872;2023-04-01T03:44:16;30.00;;;23.65;;
18574;SDS011;9417;16.484;102.872;2023-04-01T03:46:27;28.55;;;23.52;;
18574;SDS011;9417;16.484;102.872;2023-04-01T03:48:34;27.95;;;22.77;;
18574;SDS011;9417;16.484;102.872;2023-04-01T03:50:41;28.52;;;22.70;;
18574;SDS011;9417;16.484;102.872;2023-04-01T03:52:49;30.27;;;23.13;;
18574;SDS011;9417;16.484;102.872;2023-04-01T03:54:56;30.45;;;23.48;;
18574;SDS011;9417;16.484;102.872;2023-04-01T03:57:04;29.60;;;22.88;;
18574;SDS011;9417;16.484;102.872;2023-04-01T03:59:12;28.63;;;23.15;;
18574;SDS011;9417;16.484;102.872;2023-04-01T04:01:21;29.73;;;22.90;;
18574;SDS011;9417;16.484;102.872;2023-04-01T04:03:30;23.88;;;21.33;;
18574;SDS011;9417;16.484;102.872;2023-04-01T04:05:37;30.45;;;22.73;;
18574;SDS011;9417;16.484;102.872;2023-04-01T04:07:54;25.85;;;21.83;;
18574;SDS011;9417;16.484;102.872;2023-04-01T04:10:01;28.00;;;21.75;;
18574;SDS011;9417;16.484;102.872;2023-04-01T04:12:09;26.25;;;21.80;;
18574;SDS011;9417;16.484;102.872;2023-04-01T04:14:20;27.00;;;22.88;;
18574;SDS011;9417;16.484;102.872;2023-04-01T04:16:29;26.42;;;21.17;;
18574;SDS011;9417;16.484;102.872;2023-04-01T04:18:37;27.25;;;21.10;;
18574;SDS011;9417;16.484;102.872;2023-04-01T04:20:44;27.40;;;21.30;;
18574;SDS011;9417;16.484;102.872;2023-04-01T04:22:54;24.70;;;21.17;;
18574;SDS011;9417;16.484;102.872;2023-04-01T04:25:02;28.92;;;22.33;;
18574;SDS011;9417;16.484;102.872;2023-04-01T04:27:10;28.33;;;22.42;;
18574;SDS011;9417;16.484;102.872;2023-04-01T04:29:35;27.83;;;21.38;;
18574;SDS011;9417;16.484;102.872;2023-04-01T04:31:42;26.40;;;21.52;;
18574;SDS011;9417;16.484;102.872;2023-04-01T04:33:50;26.00;;;21.00;;
18574;SDS011;9417;16.484;102.872;2023-04-01T04:35:57;25.25;;;21.65;;
18574;SDS011;9417;16.484;102.872;2023-04-01T04:38:05;27.55;;;22.25;;
18574;SDS011;9417;16.484;102.872;2023-04-01T04:40:12;25.48;;;21.45;;
18574;SDS011;9417;16.484;102.872;2023-04-01T04:42:20;27.35;;;23.02;;
18574;SDS011;9417;16.484;102.872;2023-04-01T04:44:36;27.55;;;21.80;;
18574;SDS011;9417;16.484;102.872;2023-04-01T04:46:43;24.17;;;20.70;;
18574;SDS011;9417;16.484;102.872;2023-04-01T04:48:50;24.98;;;22.10;;
18574;SDS011;9417;16.484;102.872;2023-04-01T04:50:58;24.08;;;21.50;;
18574;SDS011;9417;16.484;102.872;2023-04-01T04:53:05;25.88;;;22.05;;
18574;SDS011;9417;16.484;102.872;2023-04-01T04:55:12;22.60;;;19.08;;
18574;SDS011;9417;16.484;102.872;2023-04-01T04:59:30;24.98;;;19.55;;
18574;SDS011;9417;16.484;102.872;2023-04-01T05:01:53;29.50;;;21.10;;
18574;SDS011;9417;16.484;102.872;2023-04-01T05:04:00;24.33;;;20.10;;
18574;SDS011;9417;16.484;102.872;2023-04-01T05:06:08;26.15;;;20.33;;
18574;SDS011;9417;16.484;102.872;2023-04-01T05:08:17;22.33;;;19.58;;
18574;SDS011;9417;16.484;102.872;2023-04-01T05:10:24;24.63;;;20.20;;
18574;SDS011;9417;16.484;102.872;2023-04-01T05:12:31;23.52;;;19.95;;
18574;SDS011;9417;16.484;102.872;2023-04-01T05:14:42;24.00;;;19.98;;
18574;SDS011;9417;16.484;102.872;2023-04-01T05:16:50;23.92;;;19.20;;
18574;SDS011;9417;16.484;102.872;2023-04-01T05:18:59;21.05;;;18.80;;
18574;SDS011;9417;16.484;102.872;2023-04-01T05:21:07;21.52;;;17.98;;
18574;SDS011;9417;16.484;102.872;2023-04-01T05:23:15;25.70;;;17.90;;
18574;SDS011;9417;16.484;102.872;2023-04-01T05:25:24;21.92;;;18.55;;
18574;SDS011;9417;16.484;102.872;2023-04-01T05:27:32;22.45;;;18.88;;
18574;SDS011;9417;16.484;102.872;2023-04-01T05:29:40;23.25;;;17.88;;
18574;SDS011;9417;16.484;102.872;2023-04-01T05:32:07;20.70;;;17.50;;
18574;SDS011;9417;16.484;102.872;2023-04-01T05:34:16;21.55;;;19.25;;
18574;SDS011;9417;16.484;102.872;2023-04-01T05:36:23;21.98;;;17.60;;
18574;SDS011;9417;16.484;102.872;2023-04-01T05:38:31;24.13;;;18.10;;
18574;SDS011;9417;16.484;102.872;2023-04-01T05:40:39;20.08;;;16.95;;
18574;SDS011;9417;16.484;102.872;2023-04-01T05:42:47;19.70;;;17.20;;
18574;SDS011;9417;16.484;102.872;2023-04-01T05:44:54;22.30;;;17.75;;
18574;SDS011;9417;16.484;102.872;2023-04-01T05:47:36;22.27;;;17.38;;
18574;SDS011;9417;16.484;102.872;2023-04-01T05:49:45;22.52;;;17.20;;
18574;SDS011;9417;16.484;102.872;2023-04-01T05:51:53;20.33;;;16.75;;
18574;SDS011;9417;16.484;102.872;2023-04-01T05:54:00;20.02;;;17.23;;
18574;SDS011;9417;16.484;102.872;2023-04-01T05:56:10;20.27;;;16.58;;
18574;SDS011;9417;16.484;102.872;2023-04-01T05:58:22;21.13;;;16.77;;
18574;SDS011;9417;16.484;102.872;2023-04-01T06:00:29;22.38;;;17.52;;
18574;SDS011;9417;16.484;102.872;2023-04-01T06:02:37;19.52;;;17.52;;
18574;SDS011;9417;16.484;102.872;2023-04-01T06:04:47;21.15;;;17.00;;
18574;SDS011;9417;16.484;102.872;2023-04-01T06:06:54;21.05;;;17.08;;
18574;SDS011;9417;16.484;102.872;2023-04-01T06:09:06;22.10;;;17.60;;
18574;SDS011;9417;16.484;102.872;2023-04-01T06:11:27;19.13;;;17.10;;
18574;SDS011;9417;16.484;102.872;2023-04-01T06:13:43;22.58;;;17.88;;
18574;SDS011;9417;16.484;102.872;2023-04-01T06:16:06;19.90;;;17.73;;
18574;SDS011;9417;16.484;102.872;2023-04-01T06:18:28;21.10;;;17.52;;
18574;SDS011;9417;16.484;102.872;2023-04-01T06:20:55;18.83;;;16.83;;
18574;SDS011;9417;16.484;102.872;2023-04-01T06:30:57;20.95;;;18.52;;
18574;SDS011;9417;16.484;102.872;2023-04-01T06:33:21;21.42;;;17.95;;
18574;SDS011;9417;16.484;102.872;2023-04-01T06:35:42;19.52;;;17.10;;
18574;SDS011;9417;16.484;102.872;2023-04-01T06:40:58;20.60;;;17.23;;
18574;SDS011;9417;16.484;102.872;2023-04-01T06:43:21;20.83;;;18.23;;
18574;SDS011;9417;16.484;102.872;2023-04-01T06:46:02;21.10;;;17.15;;
18574;SDS011;9417;16.484;102.872;2023-04-01T06:48:40;19.30;;;17.17;;
18574;SDS011;9417;16.484;102.872;2023-04-01T06:51:20;19.95;;;17.85;;
18574;SDS011;9417;16.484;102.872;2023-04-01T06:53:54;19.83;;;17.42;;
18574;SDS011;9417;16.484;102.872;2023-04-01T06:56:23;21.15;;;17.58;;
18574;SDS011;9417;16.484;102.872;2023-04-01T06:58:46;21.52;;;17.70;;
18574;SDS011;9417;16.484;102.872;2023-04-01T07:00:56;22.05;;;18.27;;
18574;SDS011;9417;16.484;102.872;2023-04-01T07:03:10;24.80;;;18.23;;
18574;SDS011;9417;16.484;102.872;2023-04-01T07:05:24;20.17;;;18.05;;
18574;SDS011;9417;16.484;102.872;2023-04-01T07:07:43;22.75;;;16.95;;
18574;SDS011;9417;16.484;102.872;2023-04-01T07:09:53;20.92;;;18.17;;
18574;SDS011;9417;16.484;102.872;2023-04-01T07:12:06;21.05;;;17.88;;
18574;SDS011;9417;16.484;102.872;2023-04-01T07:14:56;25.70;;;18.48;;
18574;SDS011;9417;16.484;102.872;2023-04-01T07:19:18;20.73;;;18.08;;
18574;SDS011;9417;16.484;102.872;2023-04-01T07:21:40;20.40;;;17.75;;
18574;SDS011;9417;16.484;102.872;2023-04-01T07:23:59;21.58;;;17.35;;
18574;SDS011;9417;16.484;102.872;2023-04-01T07:26:15;23.92;;;17.20;;
18574;SDS011;9417;16.484;102.872;2023-04-01T07:28:45;22.27;;;18.23;;
18574;SDS011;9417;16.484;102.872;2023-04-01T07:31:13;21.10;;;18.30;;
18574;SDS011;9417;16.484;102.872;2023-04-01T07:33:28;19.75;;;17.48;;
18574;SDS011;9417;16.484;102.872;2023-04-01T07:35:41;21.13;;;17.13;;
18574;SDS011;9417;16.484;102.872;2023-04-01T07:38:00;20.35;;;17.50;;
18574;SDS011;9417;16.484;102.872;2023-04-01T07:40:21;21.27;;;17.90;;
18574;SDS011;9417;16.484;102.872;2023-04-01T07:42:40;20.30;;;17.92;;
18574;SDS011;9417;16.484;102.872;2023-04-01T07:44:56;20.73;;;18.23;;
18574;SDS011;9417;16.484;102.872;2023-04-01T07:47:15;22.55;;;17.98;;
18574;SDS011;9417;16.484;102.872;2023-04-01T07:49:34;19.67;;;17.67;;
18574;SDS011;9417;16.484;102.872;2023-04-01T07:51:49;19.42;;;17.10;;
18574;SDS011;9417;16.484;102.872;2023-04-01T07:54:06;18.75;;;16.75;;
18574;SDS011;9417;16.484;102.872;2023-04-01T07:56:22;22.02;;;17.40;;
18574;SDS011;9417;16.484;102.872;2023-04-01T07:58:32;19.00;;;16.98;;
18574;SDS011;9417;16.484;102.872;2023-04-01T08:00:58;20.50;;;17.65;;
18574;SDS011;9417;16.484;102.872;2023-04-01T08:03:21;20.55;;;16.83;;
18574;SDS011;9417;16.484;102.872;2023-04-01T08:05:46;21.00;;;17.05;;
18574;SDS011;9417;16.484;102.872;2023-04-01T08:08:03;19.20;;;17.08;;
18574;SDS011;9417;16.484;102.872;2023-04-01T08:10:39;27.05;;;17.20;;
18574;SDS011;9417;16.484;102.872;2023-04-01T08:13:15;19.52;;;16.48;;
18574;SDS011;9417;16.484;102.872;2023-04-01T08:15:57;24.52;;;17.70;;
18574;SDS011;9417;16.484;102.872;2023-04-01T08:18:21;20.85;;;17.13;;
18574;SDS011;9417;16.484;102.872;2023-04-01T08:20:36;24.02;;;18.08;;
18574;SDS011;9417;16.484;102.872;2023-04-01T08:22:47;22.23;;;18.38;;
18574;SDS011;9417;16.484;102.872;2023-04-01T08:25:04;21.63;;;16.98;;
18574;SDS011;9417;16.484;102.872;2023-04-01T08:27:17;20.48;;;17.83;;
18574;SDS011;9417;16.484;102.872;2023-04-01T08:29:34;19.40;;;17.38;;
18574;SDS011;9417;16.484;102.872;2023-04-01T08:31:47;20.63;;;17.38;;
18574;SDS011;9417;16.484;102.872;2023-04-01T08:33:59;22.08;;;17.45;;
18574;SDS011;9417;16.484;102.872;2023-04-01T08:36:10;20.52;;;17.83;;
18574;SDS011;9417;16.484;102.872;2023-04-01T08:38:29;20.70;;;16.80;;
18574;SDS011;9417;16.484;102.872;2023-04-01T08:40:49;19.85;;;17.48;;
18574;SDS011;9417;16.484;102.872;2023-04-01T08:43:33;19.77;;;17.52;;
18574;SDS011;9417;16.484;102.872;2023-04-01T08:46:08;19.48;;;17.25;;
18574;SDS011;9417;16.484;102.872;2023-04-01T08:51:15;18.75;;;16.42;;
18574;SDS011;9417;16.484;102.872;2023-04-01T08:53:51;21.98;;;16.88;;
18574;SDS011;9417;16.484;102.872;2023-04-01T08:56:14;19.67;;;17.27;;
18574;SDS011;9417;16.484;102.872;2023-04-01T09:01:17;21.05;;;17.48;;
18574;SDS011;9417;16.484;102.872;2023-04-01T09:03:41;19.55;;;17.20;;
18574;SDS011;9417;16.484;102.872;2023-04-01T09:06:21;21.83;;;18.45;;
18574;SDS011;9417;16.484;102.872;2023-04-01T09:08:43;20.25;;;18.05;;
18574;SDS011;9417;16.484;102.872;2023-04-01T09:11:08;20.08;;;17.98;;
18574;SDS011;9417;16.484;102.872;2023-04-01T09:19:16;20.10;;;17.02;;
18574;SDS011;9417;16.484;102.872;2023-04-01T09:21:37;19.50;;;17.35;;
18574;SDS011;9417;16.484;102.872;2023-04-01T09:26:41;21.75;;;17.92;;
18574;SDS011;9417;16.484;102.872;2023-04-01T09:29:05;20.70;;;17.70;;
18574;SDS011;9417;16.484;102.872;2023-04-01T09:31:34;20.13;;;17.75;;
18574;SDS011;9417;16.484;102.872;2023-04-01T09:34:14;21.73;;;17.10;;
18574;SDS011;9417;16.484;102.872;2023-04-01T09:36:38;22.43;;;16.83;;
18574;SDS011;9417;16.484;102.872;2023-04-01T09:38:55;19.58;;;16.85;;
18574;SDS011;9417;16.484;102.872;2023-04-01T09:41:06;22.42;;;17.23;;
18574;SDS011;9417;16.484;102.872;2023-04-01T09:43:39;23.70;;;17.23;;
18574;SDS011;9417;16.484;102.872;2023-04-01T09:46:11;19.98;;;17.13;;
18574;SDS011;9417;16.484;102.872;2023-04-01T09:48:29;21.73;;;17.10;;
18574;SDS011;9417;16.484;102.872;2023-04-01T09:50:55;22.30;;;17.65;;
18574;SDS011;9417;16.484;102.872;2023-04-01T09:53:17;18.95;;;15.52;;
18574;SDS011;9417;16.484;102.872;2023-04-01T10:01:27;19.92;;;16.38;;
18574;SDS011;9417;16.484;102.872;2023-04-01T10:12:19;23.20;;;17.02;;
18574;SDS011;9417;16.484;102.872;2023-04-01T10:14:50;20.17;;;16.93;;
18574;SDS011;9417;16.484;102.872;2023-04-01T10:17:28;20.60;;;17.08;;
18574;SDS011;9417;16.484;102.872;2023-04-01T10:20:20;21.48;;;17.35;;
18574;SDS011;9417;16.484;102.872;2023-04-01T10:22:49;21.63;;;16.02;;
18574;SDS011;9417;16.484;102.872;2023-04-01T10:25:27;25.52;;;18.95;;
18574;SDS011;9417;16.484;102.872;2023-04-01T10:31:00;22.05;;;18.77;;
18574;SDS011;9417;16.484;102.872;2023-04-01T10:39:10;20.98;;;17.58;;
18574;SDS011;9417;16.484;102.872;2023-04-01T10:42:10;21.38;;;16.67;;
18574;SDS011;9417;16.484;102.872;2023-04-01T10:45:15;22.33;;;16.90;;
18574;SDS011;9417;16.484;102.872;2023-04-01T10:47:53;22.77;;;17.13;;
18574;SDS011;9417;16.484;102.872;2023-04-01T10:50:42;20.42;;;17.80;;
18574;SDS011;9417;16.484;102.872;2023-04-01T10:58:41;22.13;;;17.02;;
18574;SDS011;9417;16.484;102.872;2023-04-01T11:01:51;23.63;;;18.33;;
18574;SDS011;9417;16.484;102.872;2023-04-01T11:10:33;23.38;;;17.75;;
18574;SDS011;9417;16.484;102.872;2023-04-01T11:18:58;24.60;;;18.80;;
18574;SDS011;9417;16.484;102.872;2023-04-01T11:24:18;24.67;;;19.42;;
18574;SDS011;9417;16.484;102.872;2023-04-01T11:27:02;29.90;;;20.42;;
18574;SDS011;9417;16.484;102.872;2023-04-01T11:29:36;24.95;;;19.85;;
18574;SDS011;9417;16.484;102.872;2023-04-01T11:32:25;27.60;;;20.50;;
18574;SDS011;9417;16.484;102.872;2023-04-01T11:34:50;26.60;;;20.42;;
18574;SDS011;9417;16.484;102.872;2023-04-01T11:37:25;28.25;;;22.67;;
18574;SDS011;9417;16.484;102.872;2023-04-01T11:40:01;30.40;;;22.83;;
18574;SDS011;9417;16.484;102.872;2023-04-01T11:42:49;29.80;;;22.05;;
18574;SDS011;9417;16.484;102.872;2023-04-01T11:45:21;28.50;;;21.00;;
18574;SDS011;9417;16.484;102.872;2023-04-01T11:47:47;25.50;;;20.63;;
18574;SDS011;9417;16.484;102.872;2023-04-01T11:50:14;27.23;;;20.63;;
18574;SDS011;9417;16.484;102.872;2023-04-01T11:52:32;24.85;;;19.63;;
18574;SDS011;9417;16.484;102.872;2023-04-01T11:57:42;31.80;;;22.48;;
18574;SDS011;9417;16.484;102.872;2023-04-01T12:00:02;42.88;;;31.35;;
18574;SDS011;9417;16.484;102.872;2023-04-01T12:02:25;68.57;;;43.72;;
18574;SDS011;9417;16.484;102.872;2023-04-01T12:04:45;36.53;;;29.17;;
18574;SDS011;9417;16.484;102.872;2023-04-01T12:07:17;39.88;;;27.75;;
18574;SDS011;9417;16.484;102.872;2023-04-01T12:09:30;30.77;;;22.70;;
18574;SDS011;9417;16.484;102.872;2023-04-01T12:11:46;35.10;;;24.90;;
18574;SDS011;9417;16.484;102.872;2023-04-01T12:14:04;31.13;;;23.95;;
18574;SDS011;9417;16.484;102.872;2023-04-01T12:18:50;30.65;;;23.75;;
18574;SDS011;9417;16.484;102.872;2023-04-01T12:21:03;33.38;;;23.10;;
18574;SDS011;9417;16.484;102.872;2023-04-01T12:23:35;31.75;;;23.23;;
18574;SDS011;9417;16.484;102.872;2023-04-01T12:28:43;31.75;;;23.17;;
18574;SDS011;9417;16.484;102.872;2023-04-01T12:31:03;29.23;;;22.75;;
18574;SDS011;9417;16.484;102.872;2023-04-01T12:35:52;36.72;;;24.33;;
18574;SDS011;9417;16.484;102.872;2023-04-01T12:38:13;34.45;;;25.40;;
18574;SDS011;9417;16.484;102.872;2023-04-01T12:40:36;32.28;;;25.35;;
18574;SDS011;9417;16.484;102.872;2023-04-01T12:42:58;36.65;;;26.13;;
18574;SDS011;9417;16.484;102.872;2023-04-01T12:45:23;37.13;;;25.95;;
18574;SDS011;9417;16.484;102.872;2023-04-01T12:50:33;34.75;;;26.10;;
18574;SDS011;9417;16.484;102.872;2023-04-01T12:55:25;40.55;;;25.92;;
18574;SDS011;9417;16.484;102.872;2023-04-01T13:00:35;34.35;;;25.75;;
18574;SDS011;9417;16.484;102.872;2023-04-01T13:03:10;34.85;;;24.63;;
18574;SDS011;9417;16.484;102.872;2023-04-01T13:05:28;32.53;;;25.67;;
18574;SDS011;9417;16.484;102.872;2023-04-01T13:07:53;34.15;;;26.23;;
18574;SDS011;9417;16.484;102.872;2023-04-01T13:10:14;35.35;;;27.02;;
18574;SDS011;9417;16.484;102.872;2023-04-01T13:12:43;35.67;;;25.60;;
18574;SDS011;9417;16.484;102.872;2023-04-01T13:15:19;35.25;;;26.10;;
18574;SDS011;9417;16.484;102.872;2023-04-01T13:17:34;34.53;;;25.83;;
18574;SDS011;9417;16.484;102.872;2023-04-01T13:19:50;39.20;;;26.00;;
18574;SDS011;9417;16.484;102.872;2023-04-01T13:22:08;32.83;;;25.65;;
18574;SDS011;9417;16.484;102.872;2023-04-01T13:24:24;35.58;;;24.65;;
18574;SDS011;9417;16.484;102.872;2023-04-01T13:26:37;34.78;;;25.13;;
18574;SDS011;9417;16.484;102.872;2023-04-01T13:28:56;38.85;;;27.05;;
18574;SDS011;9417;16.484;102.872;2023-04-01T13:31:12;50.58;;;29.40;;
18574;SDS011;9417;16.484;102.872;2023-04-01T13:33:32;41.90;;;28.77;;
18574;SDS011;9417;16.484;102.872;2023-04-01T13:35:48;36.95;;;25.80;;
18574;SDS011;9417;16.484;102.872;2023-04-01T13:38:04;29.33;;;21.23;;
18574;SDS011;9417;16.484;102.872;2023-04-01T13:40:33;26.98;;;19.98;;
18574;SDS011;9417;16.484;102.872;2023-04-01T13:43:04;32.15;;;20.73;;
18574;SDS011;9417;16.484;102.872;2023-04-01T13:45:22;28.63;;;21.23;;
18574;SDS011;9417;16.484;102.872;2023-04-01T13:50:32;24.80;;;18.52;;
18574;SDS011;9417;16.484;102.872;2023-04-01T13:55:35;27.48;;;17.92;;
18574;SDS011;9417;16.484;102.872;2023-04-01T14:00:49;23.20;;;18.48;;
18574;SDS011;9417;16.484;102.872;2023-04-01T14:03:22;28.38;;;18.27;;
18574;SDS011;9417;16.484;102.872;2023-04-01T14:05:42;23.25;;;18.30;;
18574;SDS011;9417;16.484;102.872;2023-04-01T14:07:58;24.88;;;18.95;;
18574;SDS011;9417;16.484;102.872;2023-04-01T14:10:18;25.70;;;18.63;;
18574;SDS011;9417;16.484;102.872;2023-04-01T14:12:30;24.27;;;17.85;;
18574;SDS011;9417;16.484;102.872;2023-04-01T14:14:48;25.23;;;18.45;;
18574;SDS011;9417;16.484;102.872;2023-04-01T14:19:48;25.95;;;17.83;;
18574;SDS011;9417;16.484;102.872;2023-04-01T14:22:23;25.30;;;17.92;;
18574;SDS011;9417;16.484;102.872;2023-04-01T14:24:36;25.30;;;17.30;;
18574;SDS011;9417;16.484;102.872;2023-04-01T14:29:51;24.15;;;17.30;;
18574;SDS011;9417;16.484;102.872;2023-04-01T14:32:23;24.25;;;18.08;;
18574;SDS011;9417;16.484;102.872;2023-04-01T14:34:55;22.20;;;17.65;;
18574;SDS011;9417;16.484;102.872;2023-04-01T14:37:20;20.30;;;16.95;;
18574;SDS011;9417;16.484;102.872;2023-04-01T14:39:46;23.10;;;16.30;;
18574;SDS011;9417;16.484;102.872;2023-04-01T14:42:18;21.83;;;16.13;;
18574;SDS011;9417;16.484;102.872;2023-04-01T14:44:49;22.05;;;16.02;;
18574;SDS011;9417;16.484;102.872;2023-04-01T14:47:28;23.90;;;16.08;;
18574;SDS011;9417;16.484;102.872;2023-04-01T14:49:48;21.02;;;15.75;;
18574;SDS011;9417;16.484;102.872;2023-04-01T14:52:03;21.10;;;15.80;;
18574;SDS011;9417;16.484;102.872;2023-04-01T14:54:15;22.60;;;15.90;;
18574;SDS011;9417;16.484;102.872;2023-04-01T14:56:36;22.33;;;15.73;;
18574;SDS011;9417;16.484;102.872;2023-04-01T14:58:47;27.25;;;15.35;;
18574;SDS011;9417;16.484;102.872;2023-04-01T15:01:09;20.80;;;15.35;;